Time;durP1;ratioP1;P1;durP2;ratioP2;P2;SDS_P1;SDS_P2;PMS_P1;PMS_P2;Temp;Humidity;BMP_temperature;BMP_pressure;BME280_temperature;BME280_humidity;BME280_pressure;Samples;Min_cycle;Max_cycle;Signal;HPM_P1;HPM_P2
2021/06/30 00:00:13;;;;;;;10.65;3.25;;;20.80;99.90;;;;;;5066600;28;20379;-51
2021/06/30 00:02:51;;;;;;;9.30;3.30;;;20.70;99.90;;;;;;5066779;28;20390;-51
2021/06/30 00:05:29;;;;;;;9.80;3.70;;;20.70;99.90;;;;;;5066946;28;20391;-51
2021/06/30 00:08:06;;;;;;;10.50;3.65;;;20.60;99.90;;;;;;5067077;28;20161;-52
2021/06/30 00:10:44;;;;;;;8.52;3.17;;;20.50;99.90;;;;;;5066980;28;20367;-48
2021/06/30 00:13:24;;;;;;;10.88;2.88;;;20.40;99.90;;;;;;5067154;28;20765;-55
2021/06/30 00:16:00;;;;;;;10.77;2.30;;;20.50;99.90;;;;;;5066769;28;20885;-51
2021/06/30 00:18:39;;;;;;;7.50;2.30;;;20.50;99.90;;;;;;5067053;28;20383;-51
2021/06/30 00:21:17;;;;;;;7.78;3.05;;;20.70;99.90;;;;;;5066852;28;20391;-52
2021/06/30 00:23:54;;;;;;;8.68;2.70;;;20.80;99.90;;;;;;5052811;27;20525;-51
2021/06/30 00:26:32;;;;;;;11.15;2.20;;;20.70;99.90;;;;;;5050311;28;20814;-50
2021/06/30 00:29:10;;;;;;;7.25;2.00;;;20.70;99.90;;;;;;5047829;28;20770;-51
2021/06/30 00:31:48;;;;;;;6.10;2.00;;;20.60;99.90;;;;;;5053349;28;20882;-49
2021/06/30 00:34:26;;;;;;;12.68;2.33;;;20.60;99.90;;;;;;5047873;28;20388;-50
2021/06/30 00:37:04;;;;;;;8.65;2.38;;;20.60;99.90;;;;;;5048522;28;20384;-50
2021/06/30 00:39:41;;;;;;;5.95;1.88;;;20.50;99.90;;;;;;5046059;28;20530;-52
2021/06/30 00:42:19;;;;;;;6.43;2.28;;;20.50;99.90;;;;;;5046076;28;20914;-51
2021/06/30 00:44:57;;;;;;;10.38;2.00;;;20.40;99.90;;;;;;5046327;28;20921;-51
2021/06/30 00:47:36;;;;;;;9.32;2.00;;;20.40;99.90;;;;;;5047180;28;20391;-50
2021/06/30 00:50:16;;;;;;;9.57;2.35;;;20.30;99.90;;;;;;5054208;28;20383;-49
2021/06/30 00:52:54;;;;;;;10.70;1.60;;;20.30;99.90;;;;;;5091842;27;20378;-50
2021/06/30 00:55:32;;;;;;;15.60;2.25;;;20.50;99.90;;;;;;5049874;28;20385;-51
2021/06/30 00:58:10;;;;;;;13.60;2.70;;;20.50;99.90;;;;;;5047789;28;20395;-51
2021/06/30 01:00:49;;;;;;;11.40;2.30;;;20.50;99.90;;;;;;5047739;28;20912;-51
2021/06/30 01:03:26;;;;;;;8.98;1.92;;;20.50;99.90;;;;;;5057943;28;20789;-52
2021/06/30 01:06:05;;;;;;;11.18;2.60;;;20.60;99.90;;;;;;5093836;27;20912;-52
2021/06/30 01:08:42;;;;;;;10.00;2.15;;;20.50;99.90;;;;;;5045667;28;20150;-51
2021/06/30 01:11:19;;;;;;;9.85;2.13;;;20.50;99.90;;;;;;5106901;27;20372;-50
2021/06/30 01:13:58;;;;;;;9.73;1.90;;;20.60;99.90;;;;;;5046247;28;20384;-51
2021/06/30 01:16:36;;;;;;;9.82;2.08;;;20.70;99.90;;;;;;5047229;28;20447;-50
2021/06/30 01:19:21;;;;;;;9.18;1.73;;;20.70;99.90;;;;;;5066742;28;20741;-50
2021/06/30 01:21:59;;;;;;;9.35;1.95;;;20.70;99.90;;;;;;5066454;28;20390;-51
2021/06/30 01:24:38;;;;;;;8.48;1.88;;;20.60;99.90;;;;;;5066749;28;20375;-50
2021/06/30 01:27:18;;;;;;;10.55;2.80;;;20.50;99.90;;;;;;5033441;28;20382;-54
2021/06/30 01:29:55;;;;;;;7.45;1.83;;;20.40;99.90;;;;;;5047605;28;20385;-48
2021/06/30 01:32:33;;;;;;;13.20;2.03;;;20.30;99.90;;;;;;5050775;28;20384;-52
2021/06/30 01:35:17;;;;;;;11.57;2.45;;;20.30;99.90;;;;;;5091144;27;20635;-52
2021/06/30 01:37:55;;;;;;;6.82;1.90;;;20.20;99.90;;;;;;5049474;28;20384;-51
2021/06/30 01:40:33;;;;;;;10.70;1.95;;;20.10;99.90;;;;;;5050503;28;20376;-53
2021/06/30 01:43:11;;;;;;;10.30;2.05;;;20.00;99.90;;;;;;5088517;27;20384;-52
2021/06/30 01:45:53;;;;;;;9.90;2.08;;;20.00;99.90;;;;;;5052111;28;20390;-53
2021/06/30 01:48:30;;;;;;;9.15;2.10;;;20.00;99.90;;;;;;5066836;28;20383;-52
2021/06/30 01:51:08;;;;;;;9.07;1.92;;;20.00;99.90;;;;;;5066580;28;20375;-50
2021/06/30 01:53:45;;;;;;;12.82;2.22;;;19.90;99.90;;;;;;5066522;28;20135;-50
2021/06/30 01:56:24;;;;;;;13.40;2.45;;;19.80;99.90;;;;;;5067083;28;20379;-51
2021/06/30 01:59:07;;;;;;;12.02;2.22;;;19.70;99.90;;;;;;5067142;28;20379;-50
2021/06/30 02:01:45;;;;;;;13.32;2.17;;;19.60;99.90;;;;;;5086927;27;20377;-50
2021/06/30 02:04:23;;;;;;;15.27;2.80;;;19.60;99.90;;;;;;5066604;28;20371;-50
2021/06/30 02:07:01;;;;;;;9.35;2.28;;;19.60;99.90;;;;;;5066380;28;20375;-50
2021/06/30 02:09:39;;;;;;;13.60;2.55;;;19.80;99.90;;;;;;5066755;28;20774;-51
2021/06/30 02:12:17;;;;;;;9.77;2.83;;;19.80;99.90;;;;;;5066658;28;20753;-48
2021/06/30 02:14:54;;;;;;;9.23;1.90;;;20.00;99.90;;;;;;5063896;28;20131;-51
2021/06/30 02:17:31;;;;;;;12.50;2.50;;;20.00;99.90;;;;;;5066378;28;20138;-50
2021/06/30 02:20:12;;;;;;;12.93;2.97;;;20.00;99.90;;;;;;5066582;28;20371;-50
2021/06/30 02:22:52;;;;;;;13.25;2.28;;;20.00;99.90;;;;;;5106601;27;20391;-50
2021/06/30 02:25:31;;;;;;;14.70;2.25;;;20.00;99.90;;;;;;5065579;28;20387;-51
2021/06/30 02:28:08;;;;;;;8.52;2.28;;;20.10;99.90;;;;;;5066784;28;20765;-52
2021/06/30 02:30:47;;;;;;;14.70;2.45;;;20.10;99.90;;;;;;5066437;28;20379;-50
2021/06/30 02:33:25;;;;;;;13.57;3.35;;;20.10;99.90;;;;;;5066568;28;20762;-50
2021/06/30 02:36:03;;;;;;;9.35;2.20;;;20.00;99.90;;;;;;5066533;28;20889;-52
2021/06/30 02:38:42;;;;;;;10.07;2.70;;;20.00;99.90;;;;;;5067136;28;20379;-51
2021/06/30 02:41:19;;;;;;;15.52;2.90;;;20.00;99.90;;;;;;5066735;28;20387;-51
2021/06/30 02:43:56;;;;;;;12.48;3.65;;;20.00;99.90;;;;;;5066702;28;20682;-51
2021/06/30 02:46:32;;;;;;;9.75;2.75;;;19.90;99.90;;;;;;5066515;28;20139;-51
2021/06/30 02:49:10;;;;;;;10.13;2.35;;;19.90;99.90;;;;;;5066538;28;20375;-53
2021/06/30 02:51:47;;;;;;;10.02;2.20;;;19.90;99.90;;;;;;5066947;28;20131;-50
2021/06/30 02:54:24;;;;;;;12.95;2.50;;;19.90;99.90;;;;;;5067122;28;20618;-53
2021/06/30 02:57:03;;;;;;;8.40;2.13;;;19.90;99.90;;;;;;5066881;28;20881;-51
2021/06/30 02:59:40;;;;;;;8.43;2.00;;;19.80;99.90;;;;;;5067352;28;20379;-55
2021/06/30 03:02:17;;;;;;;8.15;1.75;;;19.80;99.90;;;;;;5066806;28;20138;-53
2021/06/30 03:04:53;;;;;;;8.13;2.10;;;19.90;99.90;;;;;;5066839;28;20134;-52
2021/06/30 03:07:30;;;;;;;11.85;2.10;;;19.90;99.90;;;;;;5027007;28;20132;-52
2021/06/30 03:10:09;;;;;;;8.65;2.58;;;19.90;99.90;;;;;;5066560;28;20521;-53
2021/06/30 03:12:48;;;;;;;11.77;2.55;;;20.10;99.90;;;;;;5067130;28;20379;-52
2021/06/30 03:15:24;;;;;;;9.43;2.03;;;20.10;99.90;;;;;;5066687;27;20565;-52
2021/06/30 03:18:01;;;;;;;7.60;3.10;;;20.00;99.90;;;;;;5066933;28;20138;-51
2021/06/30 03:20:39;;;;;;;9.20;2.53;;;20.00;99.90;;;;;;5066737;28;20387;-51
2021/06/30 03:23:17;;;;;;;7.78;1.77;;;19.90;99.90;;;;;;5066642;28;20383;-52
2021/06/30 03:25:56;;;;;;;14.93;2.90;;;19.90;99.90;;;;;;5066795;28;20379;-55
2021/06/30 03:28:34;;;;;;;10.57;1.98;;;19.90;99.90;;;;;;5066764;28;20387;-56
2021/06/30 03:31:12;;;;;;;13.20;2.60;;;19.90;99.90;;;;;;5066884;28;20379;-53
2021/06/30 03:33:49;;;;;;;9.60;2.05;;;19.90;99.90;;;;;;5067105;28;20135;-53
2021/06/30 03:36:26;;;;;;;16.95;2.50;;;19.90;99.90;;;;;;5066604;28;20533;-54
2021/06/30 03:39:04;;;;;;;11.90;2.40;;;19.80;99.90;;;;;;5066785;28;20889;-53
2021/06/30 03:41:42;;;;;;;16.85;2.20;;;19.80;99.90;;;;;;5066538;28;20394;-50
2021/06/30 03:44:18;;;;;;;11.15;2.88;;;19.60;99.90;;;;;;5066870;28;20139;-51
2021/06/30 03:46:55;;;;;;;9.13;2.08;;;19.60;99.90;;;;;;5066645;28;20135;-52
2021/06/30 03:49:33;;;;;;;9.38;2.03;;;19.50;99.90;;;;;;5066725;28;20379;-51
2021/06/30 03:52:11;;;;;;;7.88;2.10;;;19.50;99.90;;;;;;5067255;28;20390;-51
2021/06/30 03:54:48;;;;;;;10.63;2.50;;;19.60;99.90;;;;;;5066341;28;20135;-52
2021/06/30 03:57:25;;;;;;;13.20;2.10;;;19.60;99.90;;;;;;5066455;28;20627;-52
2021/06/30 04:00:07;;;;;;;15.48;2.55;;;19.60;99.90;;;;;;5066846;28;20383;-49
2021/06/30 04:02:49;;;;;;;14.40;2.30;;;19.60;99.90;;;;;;5066849;28;20885;-52
2021/06/30 04:05:26;;;;;;;9.50;2.00;;;19.50;99.90;;;;;;5066465;28;20135;-54
2021/06/30 04:08:10;;;;;;;14.88;2.30;;;19.50;99.90;;;;;;5066623;28;20378;-50
2021/06/30 04:10:47;;;;;;;12.77;2.55;;;19.60;99.90;;;;;;5066664;28;20911;-51
2021/06/30 04:13:25;;;;;;;10.77;2.08;;;19.70;99.90;;;;;;5067027;28;20387;-50
2021/06/30 04:16:03;;;;;;;7.63;2.30;;;19.70;99.90;;;;;;5066895;28;20383;-50
2021/06/30 04:18:42;;;;;;;11.13;2.95;;;19.70;99.90;;;;;;5066680;28;20375;-48
2021/06/30 04:21:20;;;;;;;10.00;2.45;;;19.80;99.90;;;;;;5066499;28;20375;-50
2021/06/30 04:23:56;;;;;;;12.70;2.60;;;19.90;99.90;;;;;;5066443;28;20620;-50
2021/06/30 04:26:34;;;;;;;15.68;3.38;;;20.10;99.90;;;;;;5066641;28;20143;-52
2021/06/30 04:29:11;;;;;;;11.80;2.55;;;20.20;99.90;;;;;;5066555;28;20375;-51
2021/06/30 04:31:49;;;;;;;12.57;2.90;;;20.20;99.90;;;;;;5066234;28;20773;-51
2021/06/30 04:34:26;;;;;;;10.57;2.35;;;20.30;99.90;;;;;;5066816;28;20138;-49
2021/06/30 04:37:03;;;;;;;17.00;4.25;;;20.30;99.90;;;;;;5066769;28;20403;-52
2021/06/30 04:39:41;;;;;;;23.05;4.18;;;20.40;99.90;;;;;;5107388;27;20387;-50
2021/06/30 04:42:19;;;;;;;21.75;3.10;;;20.40;99.90;;;;;;5066723;28;20383;-49
2021/06/30 04:44:57;;;;;;;16.38;2.65;;;20.20;99.90;;;;;;5049958;27;20381;-49
2021/06/30 04:47:35;;;;;;;15.38;2.85;;;20.10;99.90;;;;;;5045082;28;20380;-55
2021/06/30 04:50:12;;;;;;;12.18;2.75;;;20.10;99.90;;;;;;5045858;28;20128;-52
2021/06/30 04:52:50;;;;;;;20.60;4.50;;;20.20;99.90;;;;;;5048728;28;20385;-51
2021/06/30 04:55:28;;;;;;;12.32;2.75;;;20.40;99.90;;;;;;5066468;28;20383;-52
2021/06/30 04:58:07;;;;;;;18.33;2.80;;;20.50;99.90;;;;;;5066782;28;20375;-53
2021/06/30 05:00:45;;;;;;;13.07;3.78;;;20.60;99.90;;;;;;5060945;28;20376;-50
2021/06/30 05:03:27;;;;;;;16.17;2.95;;;20.60;99.90;;;;;;5046693;28;20384;-49
2021/06/30 05:06:04;;;;;;;20.30;3.15;;;20.70;99.90;;;;;;5045418;28;20380;-51
2021/06/30 05:08:41;;;;;;;14.38;2.88;;;20.80;99.90;;;;;;5066507;28;20138;-51
2021/06/30 05:11:18;;;;;;;14.75;3.03;;;20.80;99.90;;;;;;5066479;28;20131;-55
2021/06/30 05:13:56;;;;;;;15.88;3.00;;;20.90;99.90;;;;;;5066975;28;20367;-54
2021/06/30 05:16:34;;;;;;;14.48;3.08;;;21.10;99.90;;;;;;5128045;27;20131;-49
2021/06/30 05:19:13;;;;;;;22.85;3.22;;;21.20;99.90;;;;;;5066450;28;20423;-49
2021/06/30 05:21:50;;;;;;;16.92;2.92;;;21.40;99.90;;;;;;5051447;28;20138;-48
2021/06/30 05:24:28;;;;;;;23.70;4.35;;;21.90;99.90;;;;;;5042425;27;20420;-50
2021/06/30 05:27:07;;;;;;;16.95;3.30;;;22.00;99.90;;;;;;5067075;28;20390;-52
2021/06/30 05:29:45;;;;;;;18.35;3.03;;;21.90;99.90;;;;;;5052717;28;20381;-48
2021/06/30 05:32:23;;;;;;;13.98;2.78;;;23.00;99.90;;;;;;5053369;28;20396;-50
2021/06/30 05:35:00;;;;;;;20.27;3.38;;;25.30;99.90;;;;;;5050104;28;20140;-49
2021/06/30 05:37:38;;;;;;;19.17;3.85;;;25.40;98.40;;;;;;5047382;28;20380;-51
2021/06/30 05:40:16;;;;;;;16.77;3.53;;;25.60;98.30;;;;;;5066142;28;20884;-48
2021/06/30 05:42:55;;;;;;;18.85;4.50;;;27.20;96.40;;;;;;5087122;27;20377;-51
2021/06/30 05:45:33;;;;;;;12.95;2.90;;;27.60;94.50;;;;;;5055036;28;20384;-51
2021/06/30 05:48:11;;;;;;;26.85;3.38;;;28.10;93.90;;;;;;5066606;28;20394;-47
2021/06/30 05:50:49;;;;;;;13.88;2.75;;;29.40;92.70;;;;;;5001152;28;20379;-51
2021/06/30 05:53:27;;;;;;;13.35;2.30;;;29.40;90.60;;;;;;5063488;28;20406;-51
2021/06/30 05:56:06;;;;;;;13.27;2.58;;;27.90;91.20;;;;;;5046360;28;20412;-50
2021/06/30 05:58:45;;;;;;;14.02;2.50;;;26.90;92.70;;;;;;5066517;28;20387;-48
2021/06/30 06:01:23;;;;;;;16.48;2.60;;;27.70;92.60;;;;;;5053977;28;20381;-50
2021/06/30 06:04:01;;;;;;;10.68;2.50;;;28.80;91.80;;;;;;5055174;27;20419;-50
2021/06/30 06:06:38;;;;;;;15.32;2.38;;;30.10;90.50;;;;;;5066379;28;20532;-48
2021/06/30 06:09:15;;;;;;;15.80;3.20;;;30.60;88.90;;;;;;5066461;28;20138;-49
2021/06/30 06:11:53;;;;;;;9.48;2.80;;;30.80;86.10;;;;;;5057382;28;20384;-52
2021/06/30 06:14:30;;;;;;;8.35;2.70;;;29.70;88.20;;;;;;5066437;28;20142;-47
2021/06/30 06:17:09;;;;;;;10.43;2.78;;;30.50;87.50;;;;;;4998341;28;20388;-50
2021/06/30 06:19:46;;;;;;;9.85;2.55;;;31.10;86.00;;;;;;5066642;27;20395;-50
2021/06/30 06:22:24;;;;;;;15.73;3.38;;;32.20;82.70;;;;;;5064070;28;20380;-49
2021/06/30 06:25:07;;;;;;;15.80;2.50;;;32.60;81.70;;;;;;5066160;28;20374;-51
2021/06/30 06:27:44;;;;;;;15.45;2.97;;;33.30;80.40;;;;;;5066530;28;20379;-49
2021/06/30 06:30:27;;;;;;;6.30;2.38;;;33.60;78.70;;;;;;5066448;28;20379;-49
2021/06/30 06:33:05;;;;;;;14.18;2.78;;;34.10;77.50;;;;;;5066413;28;20398;-48
2021/06/30 06:35:44;;;;;;;12.77;2.15;;;34.50;76.20;;;;;;5066519;28;20130;-51
2021/06/30 06:38:23;;;;;;;8.75;2.47;;;34.60;75.40;;;;;;5066498;28;20387;-50
2021/06/30 06:41:01;;;;;;;14.07;2.95;;;34.30;74.10;;;;;;5057052;28;20384;-51
2021/06/30 06:43:43;;;;;;;10.10;2.60;;;34.00;73.60;;;;;;5048338;28;20396;-49
2021/06/30 06:46:21;;;;;;;11.98;2.47;;;33.80;74.40;;;;;;5066548;28;20379;-50
2021/06/30 06:48:59;;;;;;;7.63;2.05;;;33.10;74.40;;;;;;5066353;28;20383;-50
2021/06/30 06:51:38;;;;;;;15.18;2.85;;;33.10;75.10;;;;;;5066760;28;20394;-52
2021/06/30 06:54:15;;;;;;;15.75;3.17;;;33.50;74.90;;;;;;5066809;28;20375;-50
2021/06/30 06:56:54;;;;;;;11.15;2.72;;;33.90;74.60;;;;;;5107325;27;20753;-48
2021/06/30 06:59:32;;;;;;;12.90;2.00;;;34.00;73.50;;;;;;5066518;28;20383;-51
2021/06/30 07:02:10;;;;;;;8.23;2.25;;;34.10;72.40;;;;;;5035708;28;20382;-48
2021/06/30 07:04:48;;;;;;;11.10;2.25;;;34.60;71.80;;;;;;5047728;28;20373;-49
2021/06/30 07:07:26;;;;;;;13.95;2.28;;;34.60;72.50;;;;;;5066824;28;20375;-49
2021/06/30 07:10:03;;;;;;;11.20;1.60;;;34.30;72.10;;;;;;5052843;28;20131;-50
2021/06/30 07:12:41;;;;;;;10.88;2.95;;;34.40;72.00;;;;;;5048752;28;20379;-52
2021/06/30 07:15:18;;;;;;;17.15;2.80;;;35.10;71.20;;;;;;5066910;28;20142;-51
2021/06/30 07:17:56;;;;;;;14.10;2.22;;;35.50;71.20;;;;;;5066702;28;20379;-50
2021/06/30 07:20:34;;;;;;;16.25;2.20;;;35.90;70.00;;;;;;5059066;28;20388;-50
2021/06/30 07:23:12;;;;;;;15.27;2.22;;;36.20;69.40;;;;;;5054944;28;20625;-50
2021/06/30 07:25:50;;;;;;;8.52;2.25;;;36.40;68.80;;;;;;5061352;28;20895;-51
2021/06/30 07:28:27;;;;;;;11.52;2.65;;;36.60;68.10;;;;;;5056198;28;20406;-49
2021/06/30 07:31:06;;;;;;;12.52;2.00;;;36.70;67.50;;;;;;5065076;28;20376;-50
2021/06/30 07:33:44;;;;;;;6.93;1.77;;;36.70;67.20;;;;;;5050609;28;20388;-49
2021/06/30 07:36:22;;;;;;;12.32;2.33;;;37.10;66.60;;;;;;5066175;28;20382;-51
2021/06/30 07:39:00;;;;;;;12.98;2.05;;;37.50;66.00;;;;;;5046119;28;20411;-51
2021/06/30 07:41:38;;;;;;;7.28;2.20;;;37.80;65.90;;;;;;5066164;28;20383;-51
2021/06/30 07:44:16;;;;;;;8.07;1.85;;;38.40;64.80;;;;;;5066203;28;20382;-51
2021/06/30 07:46:55;;;;;;;10.70;1.73;;;38.30;64.60;;;;;;5066909;28;20375;-50
2021/06/30 07:49:33;;;;;;;7.75;1.83;;;38.70;63.70;;;;;;5062978;28;20379;-54
2021/06/30 07:52:11;;;;;;;7.88;1.77;;;38.70;63.60;;;;;;5058023;22;20408;-51
2021/06/30 07:54:49;;;;;;;8.88;2.03;;;39.20;62.10;;;;;;5066569;28;20757;-49
2021/06/30 07:57:27;;;;;;;11.65;1.73;;;38.70;62.00;;;;;;5107187;27;20391;-53
2021/06/30 08:00:05;;;;;;;11.48;1.85;;;38.50;62.70;;;;;;5066298;28;20149;-55
2021/06/30 08:02:49;;;;;;;13.05;2.53;;;38.50;62.30;;;;;;5066996;28;20371;-52
2021/06/30 08:05:28;;;;;;;10.80;2.30;;;37.00;63.10;;;;;;5066401;28;20391;-54
2021/06/30 08:08:05;;;;;;;9.30;2.20;;;36.80;64.00;;;;;;5066830;28;20382;-54
2021/06/30 08:10:43;;;;;;;7.35;2.20;;;37.60;63.80;;;;;;5066267;28;20382;-51
2021/06/30 08:13:21;;;;;;;7.22;2.30;;;35.10;64.10;;;;;;5067126;28;20382;-52
2021/06/30 08:16:00;;;;;;;9.98;2.03;;;34.20;66.00;;;;;;5067325;28;20379;-52
2021/06/30 08:18:36;;;;;;;7.43;1.98;;;34.50;66.40;;;;;;5066118;28;20622;-51
2021/06/30 08:21:16;;;;;;;6.75;1.90;;;35.60;64.90;;;;;;5066165;28;20379;-51
2021/06/30 08:23:54;;;;;;;10.32;1.90;;;36.80;64.00;;;;;;5066731;28;20381;-50
2021/06/30 08:26:33;;;;;;;19.55;2.88;;;38.00;61.20;;;;;;5066379;28;20398;-51
2021/06/30 08:29:11;;;;;;;7.43;2.03;;;37.50;62.50;;;;;;5066717;28;20371;-51
2021/06/30 08:31:49;;;;;;;13.30;2.17;;;36.70;61.10;;;;;;5046800;28;20675;-54
2021/06/30 08:34:28;;;;;;;8.82;1.67;;;34.10;63.90;;;;;;5064045;28;20832;-54
2021/06/30 08:37:07;;;;;;;12.95;2.53;;;33.50;63.10;;;;;;5049232;28;20922;-54
2021/06/30 08:39:45;;;;;;;8.05;1.80;;;35.30;64.70;;;;;;5046375;28;20387;-51
2021/06/30 08:42:23;;;;;;;5.97;1.75;;;37.80;62.60;;;;;;5106630;27;20369;-54
2021/06/30 08:45:03;;;;;;;5.43;1.42;;;39.50;60.00;;;;;;5047734;28;20373;-53
2021/06/30 08:47:42;;;;;;;6.03;1.65;;;40.80;59.20;;;;;;5054315;28;20381;-51
2021/06/30 08:50:21;;;;;;;8.50;1.73;;;40.90;58.20;;;;;;5065821;28;20556;-52
2021/06/30 08:53:00;;;;;;;7.35;1.75;;;41.70;57.40;;;;;;5127772;27;20124;-51
2021/06/30 08:55:38;;;;;;;7.47;1.67;;;42.50;57.30;;;;;;5066570;28;20379;-53
2021/06/30 08:58:16;;;;;;;9.32;1.70;;;42.70;55.60;;;;;;5066863;28;20379;-53
2021/06/30 09:00:55;;;;;;;5.60;1.40;;;42.90;55.30;;;;;;5066039;28;20375;-51
2021/06/30 09:03:32;;;;;;;6.28;1.88;;;43.10;55.10;;;;;;5066665;28;20379;-52
2021/06/30 09:06:13;;;;;;;5.35;1.30;;;42.90;54.50;;;;;;5066611;28;20770;-51
2021/06/30 09:08:50;;;;;;;10.60;2.03;;;41.40;54.50;;;;;;5066507;28;20383;-51
2021/06/30 09:11:30;;;;;;;11.55;1.75;;;37.30;55.70;;;;;;5066277;28;20517;-50
2021/06/30 09:14:21;;;;;;;6.57;1.20;;;38.90;56.40;;;;;;5067020;28;20390;-51
2021/06/30 09:17:21;;;;;;;14.43;1.80;;;37.90;57.80;;;;;;5066699;28;20406;-51
2021/06/30 09:20:06;;;;;;;4.65;1.30;;;39.40;55.80;;;;;;5066998;28;20379;-52
2021/06/30 09:22:55;;;;;;;8.48;1.67;;;37.30;55.10;;;;;;5086758;27;20378;-51
2021/06/30 09:25:40;;;;;;;4.95;1.30;;;37.50;55.80;;;;;;5066652;28;20398;-53
2021/06/30 09:28:24;;;;;;;8.02;1.00;;;39.10;55.50;;;;;;5046718;28;20408;-52
2021/06/30 09:31:07;;;;;;;4.43;1.23;;;39.70;53.50;;;;;;5060219;28;20384;-52
2021/06/30 09:33:53;;;;;;;5.53;1.00;;;37.00;55.00;;;;;;5064214;28;20383;-55
2021/06/30 09:36:44;;;;;;;7.47;1.35;;;35.60;56.50;;;;;;5066845;28;20383;-50
2021/06/30 09:39:22;;;;;;;12.90;1.30;;;35.50;57.90;;;;;;5066592;28;20375;-53
2021/06/30 09:42:07;;;;;;;4.80;1.13;;;37.40;56.50;;;;;;5066327;28;20379;-53
2021/06/30 09:44:45;;;;;;;8.90;1.30;;;36.70;55.60;;;;;;5059241;28;20388;-52
2021/06/30 09:47:23;;;;;;;10.48;1.20;;;38.70;55.00;;;;;;5099831;27;20399;-52
2021/06/30 09:50:01;;;;;;;5.63;1.20;;;36.50;53.90;;;;;;5046390;28;20388;-57
2021/06/30 09:52:41;;;;;;;10.65;1.20;;;33.50;57.20;;;;;;5086699;27;20410;-52
2021/06/30 09:55:30;;;;;;;4.00;1.05;;;34.30;59.20;;;;;;5086897;28;20374;-52
2021/06/30 09:58:08;;;;;;;9.45;1.52;;;34.70;59.40;;;;;;5066949;28;20379;-54
2021/06/30 10:00:45;;;;;;;11.77;1.23;;;36.60;57.60;;;;;;5066436;28;20169;-53
2021/06/30 10:03:39;;;;;;;8.00;1.30;;;36.60;56.50;;;;;;5052853;28;20403;-54
2021/06/30 10:06:30;;;;;;;5.20;1.25;;;34.10;57.80;;;;;;5066642;28;20402;-50
2021/06/30 10:09:13;;;;;;;10.35;1.50;;;34.80;58.60;;;;;;5086929;27;20911;-52
2021/06/30 10:11:57;;;;;;;5.45;1.13;;;33.40;59.10;;;;;;5003587;28;20394;-52
2021/06/30 10:14:36;;;;;;;7.43;1.20;;;32.10;61.90;;;;;;5066911;28;20375;-51
2021/06/30 10:17:15;;;;;;;3.25;0.93;;;32.00;59.40;;;;;;5066680;28;20371;-53
2021/06/30 10:19:55;;;;;;;4.10;1.10;;;33.00;60.70;;;;;;5068865;28;20378;-51
2021/06/30 10:22:32;;;;;;;8.43;1.10;;;33.50;59.20;;;;;;5106713;27;20376;-55
2021/06/30 10:25:11;;;;;;;3.53;1.45;;;33.50;60.10;;;;;;5066717;28;20383;-50
2021/06/30 10:27:52;;;;;;;5.53;1.00;;;33.40;60.50;;;;;;5066986;28;20405;-50
2021/06/30 10:30:30;;;;;;;3.67;1.10;;;33.50;60.40;;;;;;5049005;28;20385;-51
2021/06/30 10:33:08;;;;;;;5.72;1.30;;;33.30;60.70;;;;;;5066112;28;20375;-52
2021/06/30 10:35:48;;;;;;;5.25;1.35;;;32.80;61.00;;;;;;5082145;28;20133;-55
2021/06/30 10:38:50;;;;;;;6.15;1.15;;;30.80;62.30;;;;;;5066631;28;20893;-52
2021/06/30 10:41:55;;;;;;;22.77;2.30;;;31.60;63.60;;;;;;5066470;28;20370;-53
2021/06/30 10:44:54;;;;;;;3.67;1.30;;;32.50;62.70;;;;;;5066854;28;20379;-52
2021/06/30 10:47:47;;;;;;;3.20;0.95;;;31.80;62.80;;;;;;5087035;27;20378;-53
2021/06/30 10:50:31;;;;;;;7.00;1.13;;;32.10;62.60;;;;;;5086701;27;20385;-51
2021/06/30 10:53:10;;;;;;;8.43;1.10;;;32.20;63.50;;;;;;5107248;27;20394;-51
2021/06/30 10:55:56;;;;;;;7.35;1.33;;;32.00;63.40;;;;;;5067009;28;20379;-52
2021/06/30 10:58:34;;;;;;;11.00;1.70;;;31.90;63.90;;;;;;5067115;28;20383;-51
2021/06/30 11:01:13;;;;;;;7.88;1.02;;;33.10;65.30;;;;;;5066850;28;20391;-51
2021/06/30 11:03:53;;;;;;;6.03;1.17;;;35.40;61.00;;;;;;5066858;28;20390;-52
2021/06/30 11:06:31;;;;;;;11.15;1.58;;;35.50;60.20;;;;;;5019801;28;20375;-51
2021/06/30 11:09:23;;;;;;;4.00;1.45;;;36.30;60.70;;;;;;5047055;28;20404;-53
2021/06/30 11:12:00;;;;;;;8.57;1.15;;;36.70;59.20;;;;;;5047523;28;20776;-52
2021/06/30 11:14:40;;;;;;;2.88;1.23;;;35.70;58.70;;;;;;5055184;28;20769;-51
2021/06/30 11:17:36;;;;;;;7.80;1.48;;;32.90;62.00;;;;;;5052888;28;20376;-52
2021/06/30 11:20:33;;;;;;;21.02;1.60;;;33.80;63.90;;;;;;5107170;27;20369;-53
2021/06/30 11:23:18;;;;;;;10.00;1.90;;;33.90;63.90;;;;;;5127563;27;20229;-53
2021/06/30 11:26:34;;;;;;;7.28;1.70;;;33.30;65.10;;;;;;5065094;28;20383;-52
2021/06/30 11:29:39;;;;;;;8.02;1.67;;;33.30;65.40;;;;;;5059972;28;20390;-51
2021/06/30 11:32:42;;;;;;;5.95;1.30;;;34.00;65.70;;;;;;5035306;28;20768;-53
2021/06/30 11:35:26;;;;;;;12.57;1.83;;;35.10;63.20;;;;;;5045879;28;20798;-55
2021/06/30 11:38:15;;;;;;;5.93;1.38;;;35.00;62.00;;;;;;5050490;28;20384;-53
2021/06/30 11:41:13;;;;;;;7.15;1.33;;;35.00;62.20;;;;;;5045036;28;20377;-51
2021/06/30 11:43:50;;;;;;;9.43;1.73;;;35.50;62.10;;;;;;5106146;27;20580;-54
2021/06/30 11:46:28;;;;;;;6.65;1.10;;;33.80;63.70;;;;;;5047339;27;20387;-54
2021/06/30 11:49:07;;;;;;;9.70;1.25;;;35.60;62.30;;;;;;5066938;28;20386;-57
2021/06/30 11:51:44;;;;;;;10.60;1.80;;;36.00;62.00;;;;;;5060962;28;20416;-52
2021/06/30 11:54:27;;;;;;;9.60;1.60;;;36.30;62.40;;;;;;5049954;28;20372;-52
2021/06/30 11:57:08;;;;;;;7.03;1.80;;;37.10;62.80;;;;;;4984957;28;20384;-51
2021/06/30 11:59:47;;;;;;;7.55;1.42;;;38.00;61.70;;;;;;5046962;28;20403;-51
2021/06/30 12:02:23;;;;;;;10.32;1.40;;;37.90;60.40;;;;;;5047040;28;20146;-52
2021/06/30 12:05:12;;;;;;;7.10;1.40;;;37.50;60.70;;;;;;5050539;28;20387;-51
2021/06/30 12:07:54;;;;;;;12.02;2.53;;;37.00;61.80;;;;;;5045136;28;20384;-54
2021/06/30 12:10:32;;;;;;;18.02;1.73;;;36.90;60.80;;;;;;5065024;28;20390;-52
2021/06/30 12:13:13;;;;;;;13.10;1.95;;;37.00;60.70;;;;;;5046770;28;20384;-53
2021/06/30 12:15:50;;;;;;;12.52;2.30;;;37.10;61.10;;;;;;5051605;28;20387;-56
2021/06/30 12:18:27;;;;;;;11.75;1.88;;;36.60;61.90;;;;;;5093580;27;20717;-51
2021/06/30 12:21:05;;;;;;;9.25;2.08;;;33.20;64.90;;;;;;5052616;28;20381;-54
2021/06/30 12:23:43;;;;;;;13.38;2.20;;;34.20;64.90;;;;;;5051715;27;20388;-52
2021/06/30 12:26:22;;;;;;;10.35;1.92;;;35.10;64.20;;;;;;5050291;28;20384;-51
2021/06/30 12:29:00;;;;;;;10.95;2.05;;;35.80;63.80;;;;;;5047473;28;20380;-51
2021/06/30 12:31:38;;;;;;;7.93;1.73;;;35.60;62.90;;;;;;5046666;28;20392;-50
2021/06/30 12:34:16;;;;;;;6.60;1.58;;;35.20;63.00;;;;;;5064757;28;20451;-53
2021/06/30 12:36:54;;;;;;;6.05;1.20;;;34.20;63.40;;;;;;5046372;28;20404;-57
2021/06/30 12:39:35;;;;;;;10.77;2.22;;;33.90;63.90;;;;;;5055225;28;20386;-55
2021/06/30 12:42:12;;;;;;;11.05;2.38;;;34.10;64.90;;;;;;5050075;28;20384;-56
2021/06/30 12:44:59;;;;;;;9.48;1.83;;;34.10;65.10;;;;;;5084264;27;20299;-51
2021/06/30 12:47:48;;;;;;;7.93;2.17;;;32.50;66.60;;;;;;5045834;28;20399;-52
2021/06/30 12:50:28;;;;;;;8.27;1.40;;;33.40;65.40;;;;;;5041209;28;20790;-54
2021/06/30 12:53:09;;;;;;;5.47;1.55;;;33.70;63.70;;;;;;5063900;28;20406;-53
2021/06/30 12:55:54;;;;;;;11.98;2.50;;;33.80;64.00;;;;;;5066802;28;20374;-53
2021/06/30 12:58:44;;;;;;;9.95;1.55;;;33.30;62.80;;;;;;5067081;28;20394;-52
2021/06/30 13:01:32;;;;;;;8.23;1.58;;;33.30;63.80;;;;;;5066558;28;20379;-54
2021/06/30 13:04:10;;;;;;;9.52;2.33;;;33.70;63.30;;;;;;5066459;27;20376;-52
2021/06/30 13:06:51;;;;;;;9.15;1.58;;;33.70;62.90;;;;;;5107174;27;20368;-54
2021/06/30 13:09:33;;;;;;;10.02;1.50;;;33.90;63.00;;;;;;5063276;27;21060;-53
2021/06/30 13:12:19;;;;;;;11.75;1.88;;;34.20;62.80;;;;;;5051983;28;20383;-53
2021/06/30 13:14:56;;;;;;;9.10;1.65;;;33.00;62.80;;;;;;5060845;27;20386;-53
2021/06/30 13:17:35;;;;;;;5.30;1.30;;;32.90;61.70;;;;;;5083670;27;20387;-54
2021/06/30 13:20:14;;;;;;;6.78;1.02;;;32.90;62.10;;;;;;5096849;27;20365;-51
2021/06/30 13:22:51;;;;;;;12.93;1.38;;;33.10;61.40;;;;;;5066892;28;20375;-55
2021/06/30 13:25:57;;;;;;;3.90;1.10;;;33.40;60.30;;;;;;5057696;28;20384;-55
2021/06/30 13:34:26;;;;;;;8.50;1.60;;;33.90;60.70;;;;;;5115207;27;20189;-53
2021/06/30 13:37:03;;;;;;;4.22;1.30;;;34.00;59.90;;;;;;5059760;28;20855;-53
2021/06/30 13:39:41;;;;;;;5.88;1.20;;;33.30;61.00;;;;;;5087048;27;20881;-57
2021/06/30 13:42:19;;;;;;;18.58;1.52;;;32.50;59.50;;;;;;5054538;28;20399;-56
2021/06/30 13:44:58;;;;;;;17.02;1.75;;;32.90;59.40;;;;;;5043878;28;20439;-56
2021/06/30 13:47:36;;;;;;;4.85;1.13;;;33.10;59.50;;;;;;5045519;28;20385;-53
2021/06/30 13:50:15;;;;;;;8.25;1.00;;;32.90;58.90;;;;;;5045561;28;20384;-53